Airfield :
LOGIN :

Register | Disclaimer

   EN    FR    IT 

 










Legend :    VFR   Marginal VFR   IFR   Intensive IFR   Very Intensive IFR
Visi :
Ceiling :
>= 8 km
>= 3000ft
5 to 8 km
1000 to 3000 ft
1500m to 5 km
500 to 1000 ft
800 to 1500m
200 to 500 ft
< 800m
< 200 ft
Symbols :   Thunderstorms  Fog  Heavy snow  Heavy precipitations  Wind > 20 kt
SIGMETs :     Misc.  Thunderstorms  Icing  Turbulence  Mountain Waves  Volcanic Ashes







- Airport Elevation : 302 ft
- IATA code : MAH


LEMH - Menorca

CURRENT METAR :
  • 201630Z 23010KT 200V260 9999 FEW012 SCT025 13/10 Q1020

EXPIRED METARs :
  • 201600Z 24010KT 210V270 9999 FEW012 SCT025 13/10 Q1019
  • 201530Z 23013KT 200V270 9999 FEW015 SCT025 13/10 Q1019
  • 201500Z 23010KT 190V290 9999 FEW015 SCT025 14/10 Q1019
  • 201430Z 23010KT 190V280 9999 FEW018 SCT025 13/09 Q1019
  • 201400Z 22009KT 190V250 9999 FEW018 BKN025 13/09 Q1020

TAF TAF LEMH
Valid from the 20 at 15:00 until the 21 at 15:00 UTC


201400Z 2015/2115 24012KT 9999 SCT030 TX18/2112Z TN10/2107Z
BECMG 2022/2024 29012KT
PROB30
TEMPO 2020/2104 27018G28KT
No reported NOTAMs for that airfield.



MET'MAP, your aeronautical weather chart ! - Copyright ORBIFLY December 2007 - Disclaimer

ORBIFLY MET'MAP TEAM :

Programming & Development : Alexandra Zaïnal
Concept & Development : Baudouin d'Aumeries
Co-Development & Prog : Marc-Olivier Méhu
Technical & hardware support : Manuel Goepfert

Contact : metmap@orbifly.com




SOURCES & CREDITS :

   NOAA